createdAt,value
2019-04-21T00:00:35.488Z,0.00
2019-04-21T00:01:39.871Z,0.00
2019-04-21T00:02:37.714Z,0.00
2019-04-21T00:03:42.394Z,0.00
2019-04-21T00:04:46.849Z,0.00
2019-04-21T00:05:54.590Z,0.00
2019-04-21T00:06:58.262Z,0.00
2019-04-21T00:07:51.082Z,0.00
2019-04-21T00:08:56.512Z,0.00
2019-04-21T00:10:59.365Z,0.00
2019-04-21T00:11:57.270Z,0.00
2019-04-21T00:12:52.056Z,0.00
2019-04-21T00:13:46.742Z,0.00
2019-04-21T00:14:46.070Z,0.00
2019-04-21T00:15:42.070Z,0.00
2019-04-21T00:16:44.126Z,0.00
2019-04-21T00:17:35.049Z,0.00
2019-04-21T00:18:41.783Z,0.00
2019-04-21T00:19:37.081Z,0.00
2019-04-21T00:20:41.291Z,0.00
2019-04-21T00:21:40.466Z,0.00
2019-04-21T00:22:44.439Z,0.00
2019-04-21T00:23:54.095Z,0.00
2019-04-21T00:25:46.135Z,0.00
2019-04-21T00:26:55.667Z,0.00
2019-04-21T00:27:50.108Z,0.00
2019-04-21T00:28:59.515Z,0.00
2019-04-21T00:29:52.172Z,0.00
2019-04-21T00:30:50.503Z,0.00
2019-04-21T00:31:45.550Z,0.00
2019-04-21T00:32:46.544Z,0.00
2019-04-21T00:33:37.773Z,0.00
2019-04-21T00:34:34.283Z,0.00
2019-04-21T00:35:40.365Z,0.00
2019-04-21T00:36:48.891Z,0.00
2019-04-21T00:37:53.359Z,0.00
2019-04-21T00:39:06.876Z,0.00
2019-04-21T00:40:00.980Z,0.00
2019-04-21T00:40:54.822Z,0.00
2019-04-21T00:41:53.741Z,0.00
2019-04-21T00:42:48.745Z,0.00
2019-04-21T00:43:49.064Z,0.00
2019-04-21T00:44:52.098Z,0.00
2019-04-21T00:45:44.641Z,0.00
2019-04-21T00:46:47.244Z,0.00
2019-04-21T00:47:52.865Z,0.00
2019-04-21T00:48:53.439Z,0.00
2019-04-21T00:49:58.002Z,0.00
2019-04-21T00:51:11.782Z,0.00
2019-04-21T00:52:09.359Z,0.00
2019-04-21T00:53:02.246Z,0.00
2019-04-21T00:54:07.044Z,0.00
2019-04-21T00:55:10.062Z,0.00
2019-04-21T00:55:57.347Z,0.00
2019-04-21T00:56:59.163Z,0.00
2019-04-21T00:58:00.071Z,0.00
2019-04-21T00:58:59.529Z,0.00
2019-04-21T00:59:50.007Z,0.00
2019-04-21T01:00:58.128Z,0.00
2019-04-21T01:01:53.868Z,0.00
2019-04-21T01:02:56.119Z,0.00
2019-04-21T01:03:58.285Z,0.00
2019-04-21T01:04:59.804Z,0.00
2019-04-21T01:06:14.377Z,0.00
2019-04-21T01:06:56.055Z,0.00
2019-04-21T01:07:54.659Z,0.00
2019-04-21T01:08:55.267Z,0.00
2019-04-21T01:09:50.072Z,0.00
2019-04-21T01:10:49.165Z,0.00
2019-04-21T01:11:57.583Z,0.00
2019-04-21T01:12:56.114Z,0.00
2019-04-21T01:13:59.636Z,0.00
2019-04-21T01:14:59.522Z,0.00
2019-04-21T01:15:53.336Z,0.00
2019-04-21T01:16:57.960Z,0.00
2019-04-21T01:17:54.601Z,0.00
2019-04-21T01:18:51.920Z,0.00
2019-04-21T01:19:46.861Z,0.00
2019-04-21T01:20:32.975Z,0.00
2019-04-21T01:21:32.967Z,0.00
2019-04-21T01:22:32.940Z,0.00
2019-04-21T01:23:33.688Z,0.00
2019-04-21T01:24:37.627Z,0.00
2019-04-21T01:25:38.186Z,0.00
2019-04-21T01:26:43.818Z,0.00
2019-04-21T01:27:55.901Z,0.00
2019-04-21T01:28:52.460Z,0.00
2019-04-21T01:29:54.006Z,0.00
2019-04-21T01:30:53.571Z,0.00
2019-04-21T01:31:48.274Z,0.00
2019-04-21T01:32:53.267Z,0.00
2019-04-21T01:33:59.227Z,0.00
2019-04-21T01:34:51.101Z,0.00
2019-04-21T01:35:53.703Z,0.00
2019-04-21T01:36:49.824Z,0.00
2019-04-21T01:38:10.965Z,0.00
2019-04-21T01:38:57.769Z,0.00
2019-04-21T01:39:54.529Z,0.00
2019-04-21T01:40:57.124Z,0.00
2019-04-21T01:41:51.145Z,0.00
2019-04-21T01:42:51.123Z,0.00
2019-04-21T01:43:51.554Z,0.00
2019-04-21T01:44:56.413Z,0.00
2019-04-21T01:45:48.705Z,0.00
2019-04-21T01:46:49.293Z,0.00
2019-04-21T01:47:51.091Z,0.00
2019-04-21T01:48:49.346Z,0.00
2019-04-21T01:49:43.061Z,0.00
2019-04-21T01:50:51.045Z,0.00
2019-04-21T01:52:05.578Z,0.00
2019-04-21T01:52:56.016Z,0.00
2019-04-21T01:53:57.956Z,0.00
2019-04-21T01:54:55.208Z,0.00
2019-04-21T01:55:54.555Z,0.00
2019-04-21T01:56:53.985Z,0.00
2019-04-21T01:57:49.338Z,0.00
2019-04-21T01:58:42.951Z,0.00
2019-04-21T01:59:47.145Z,0.00
2019-04-21T02:00:48.483Z,0.00
2019-04-21T02:01:54.124Z,0.00
2019-04-21T02:02:59.571Z,0.00
2019-04-21T02:05:00.737Z,0.00
2019-04-21T02:05:58.593Z,0.00
2019-04-21T02:06:45.594Z,0.00
2019-04-21T02:07:50.554Z,0.00
2019-04-21T02:08:50.982Z,0.00
2019-04-21T02:09:50.730Z,0.00
2019-04-21T02:10:54.928Z,0.00
2019-04-21T02:11:56.368Z,0.00
2019-04-21T02:12:54.979Z,0.00
2019-04-21T02:14:00.406Z,0.00
2019-04-21T02:15:00.425Z,0.00
2019-04-21T02:15:56.405Z,0.00
2019-04-21T02:16:55.678Z,0.00
2019-04-21T02:17:53.706Z,0.00
2019-04-21T02:18:53.064Z,0.00
2019-04-21T02:19:51.736Z,0.00
2019-04-21T02:20:40.999Z,0.00
2019-04-21T02:21:50.415Z,0.00
2019-04-21T02:23:19.158Z,0.00
2019-04-21T02:23:58.656Z,0.00
2019-04-21T02:24:58.365Z,0.00
2019-04-21T02:26:48.517Z,0.00
2019-04-21T02:27:57.498Z,0.00
2019-04-21T02:28:55.855Z,0.00
2019-04-21T02:29:55.850Z,0.00
2019-04-21T02:31:14.187Z,0.00
2019-04-21T02:32:20.227Z,0.00
2019-04-21T02:36:15.477Z,0.00
2019-04-21T02:38:13.914Z,0.00
2019-04-21T02:39:08.164Z,0.00
2019-04-21T02:40:04.927Z,0.00
2019-04-21T02:40:57.888Z,0.00
2019-04-21T02:42:05.327Z,0.00
2019-04-21T02:43:05.370Z,0.00
2019-04-21T02:44:10.154Z,0.00
2019-04-21T02:45:00.333Z,0.00
2019-04-21T02:46:04.259Z,0.00
2019-04-21T02:47:12.182Z,0.00
2019-04-21T02:48:06.915Z,0.00
2019-04-21T02:49:07.845Z,0.00
2019-04-21T02:50:09.555Z,0.00
2019-04-21T02:50:57.682Z,0.00
2019-04-21T02:52:13.782Z,0.00
2019-04-21T02:53:07.099Z,0.00
2019-04-21T02:54:31.826Z,0.00
2019-04-21T02:55:02.798Z,0.00
2019-04-21T02:56:00.211Z,0.00
2019-04-21T02:59:17.142Z,0.00
2019-04-21T03:00:06.863Z,0.00
2019-04-21T03:01:08.072Z,0.00
2019-04-21T03:02:03.628Z,0.00
2019-04-21T03:04:00.056Z,0.00
2019-04-21T03:05:02.413Z,0.00
2019-04-21T03:07:09.667Z,0.00
2019-04-21T03:09:09.208Z,0.00
2019-04-21T03:10:00.105Z,0.00
2019-04-21T03:11:09.390Z,0.00
2019-04-21T03:13:08.916Z,0.00
2019-04-21T03:14:11.101Z,0.00
2019-04-21T03:15:08.061Z,0.00
2019-04-21T03:16:09.227Z,0.00
2019-04-21T03:17:05.645Z,0.00
2019-04-21T03:18:06.475Z,0.00
2019-04-21T03:19:20.366Z,0.00
2019-04-21T03:19:59.929Z,0.00
2019-04-21T03:21:16.341Z,0.00
2019-04-21T03:22:05.227Z,0.00
2019-04-21T03:23:09.470Z,0.00
2019-04-21T03:23:57.375Z,0.00
2019-04-21T03:25:28.290Z,0.00
2019-04-21T03:26:14.348Z,0.00
2019-04-21T03:29:03.619Z,0.00
2019-04-21T03:30:14.276Z,0.00
2019-04-21T03:31:24.997Z,0.00
2019-04-21T03:32:31.806Z,0.00
2019-04-21T03:33:47.004Z,0.00
2019-04-21T03:37:11.357Z,0.00
2019-04-21T03:38:13.778Z,0.00
2019-04-21T03:38:55.596Z,0.00
2019-04-21T03:39:59.336Z,0.00
2019-04-21T03:40:57.719Z,0.00
2019-04-21T03:43:59.158Z,0.00
2019-04-21T03:45:06.849Z,0.00
2019-04-21T03:46:00.913Z,0.00
2019-04-21T03:48:05.309Z,0.00
2019-04-21T03:49:12.234Z,0.00
2019-04-21T03:50:08.019Z,4.00
2019-04-21T03:50:56.419Z,0.00
2019-04-21T03:52:03.813Z,4.00
2019-04-21T03:53:06.980Z,0.00
2019-04-21T03:54:00.372Z,4.00
2019-04-21T03:55:18.265Z,4.00
2019-04-21T03:57:17.791Z,4.00
2019-04-21T04:00:17.659Z,8.00
2019-04-21T04:03:27.476Z,16.00
2019-04-21T04:05:08.940Z,20.00
2019-04-21T04:07:25.082Z,28.00
2019-04-21T04:08:24.980Z,32.00
2019-04-21T04:09:19.384Z,36.00
2019-04-21T04:10:11.766Z,40.00
2019-04-21T04:11:23.435Z,44.00
2019-04-21T04:11:56.051Z,52.00
2019-04-21T04:12:57.083Z,56.00
2019-04-21T04:14:09.051Z,64.00
2019-04-21T04:18:07.787Z,96.00
2019-04-21T04:19:01.563Z,108.00
2019-04-21T04:20:24.075Z,116.00
2019-04-21T04:21:03.480Z,128.00
2019-04-21T04:22:09.364Z,140.00
2019-04-21T04:23:03.801Z,148.00
2019-04-21T04:24:09.144Z,164.00
2019-04-21T04:25:57.754Z,188.00
2019-04-21T04:28:09.870Z,216.00
2019-04-21T04:29:04.177Z,228.00
2019-04-21T04:30:10.672Z,240.00
2019-04-21T04:31:09.283Z,256.00
2019-04-21T04:31:58.792Z,272.00
2019-04-21T04:32:57.242Z,284.00
2019-04-21T04:34:10.440Z,300.00
2019-04-21T04:35:04.006Z,316.00
2019-04-21T04:36:15.637Z,328.00
2019-04-21T04:37:05.406Z,348.00
2019-04-21T04:37:59.191Z,364.00
2019-04-21T04:39:23.047Z,376.00
2019-04-21T04:40:10.466Z,392.00
2019-04-21T04:41:09.739Z,408.00
2019-04-21T04:43:09.034Z,440.00
2019-04-21T04:44:06.991Z,456.00
2019-04-21T04:46:00.517Z,488.00
2019-04-21T04:47:04.646Z,500.00
2019-04-21T04:48:01.958Z,516.00
2019-04-21T04:49:01.718Z,528.00
2019-04-21T04:50:10.271Z,544.00
2019-04-21T04:51:02.206Z,564.00
2019-04-21T04:52:18.691Z,576.00
2019-04-21T04:52:57.022Z,596.00
2019-04-21T04:54:28.645Z,608.00
2019-04-21T04:55:00.681Z,624.00
2019-04-21T04:57:08.217Z,652.00
2019-04-21T04:59:23.389Z,684.00
2019-04-21T05:01:08.057Z,712.00
2019-04-21T05:02:56.378Z,740.00
2019-04-21T05:04:20.567Z,756.00
2019-04-21T05:05:09.185Z,772.00
2019-04-21T05:06:15.827Z,784.00
2019-04-21T05:06:58.094Z,800.00
2019-04-21T05:08:19.814Z,820.00
2019-04-21T05:11:08.028Z,872.00
2019-04-21T05:11:55.742Z,892.00
2019-04-21T05:13:04.315Z,908.00
2019-04-21T05:14:59.911Z,936.00
2019-04-21T05:16:01.582Z,952.00
2019-04-21T05:17:57.609Z,976.00
2019-04-21T05:21:03.597Z,1016.00
2019-04-21T05:22:05.807Z,1028.00
2019-04-21T05:22:53.140Z,1044.00
2019-04-21T05:23:46.986Z,1060.00
2019-04-21T05:24:44.073Z,1072.00
2019-04-21T05:25:48.402Z,1088.00
2019-04-21T05:26:50.771Z,1104.00
2019-04-21T05:27:45.153Z,1116.00
2019-04-21T05:28:42.034Z,1128.00
2019-04-21T05:29:56.799Z,1140.00
2019-04-21T05:30:58.539Z,1156.00
2019-04-21T05:32:18.483Z,1168.00
2019-04-21T05:32:58.411Z,1184.00
2019-04-21T05:33:53.234Z,1196.00
2019-04-21T05:34:50.823Z,1208.00
2019-04-21T05:35:49.075Z,1224.00
2019-04-21T05:36:52.430Z,1236.00
2019-04-21T05:37:50.405Z,1244.00
2019-04-21T05:38:50.257Z,1256.00
2019-04-21T05:39:42.013Z,1268.00
2019-04-21T05:40:38.991Z,1280.00
2019-04-21T05:41:38.607Z,1276.00
2019-04-21T05:42:48.604Z,1308.00
2019-04-21T05:43:54.465Z,1320.00
2019-04-21T05:44:58.807Z,1344.00
2019-04-21T05:45:53.539Z,1368.00
2019-04-21T05:46:59.370Z,1392.00
2019-04-21T05:47:55.837Z,1416.00
2019-04-21T05:48:52.601Z,1428.00
2019-04-21T05:49:49.921Z,1436.00
2019-04-21T05:50:49.510Z,1432.00
2019-04-21T05:51:44.310Z,1452.00
2019-04-21T05:52:46.775Z,1480.00
2019-04-21T05:53:56.131Z,1492.00
2019-04-21T05:54:57.296Z,1504.00
2019-04-21T05:55:58.397Z,1520.00
2019-04-21T05:56:48.755Z,1528.00
2019-04-21T05:57:47.827Z,1536.00
2019-04-21T05:58:49.723Z,1552.00
2019-04-21T05:59:49.215Z,1576.00
2019-04-21T06:02:01.414Z,1636.00
2019-04-21T06:02:55.566Z,1644.00
2019-04-21T06:06:56.896Z,1692.00
2019-04-21T06:07:48.973Z,1704.00
2019-04-21T06:08:48.092Z,1720.00
2019-04-21T06:09:56.418Z,1732.00
2019-04-21T06:10:52.460Z,1744.00
2019-04-21T06:11:51.230Z,1756.00
2019-04-21T06:12:57.905Z,1768.00
2019-04-21T06:13:55.068Z,1780.00
2019-04-21T06:14:54.551Z,1800.00
2019-04-21T06:15:57.972Z,1812.00
2019-04-21T06:16:58.679Z,1820.00
2019-04-21T06:17:54.737Z,1832.00
2019-04-21T06:18:53.086Z,1828.00
2019-04-21T06:20:55.095Z,1824.00
2019-04-21T06:21:44.892Z,1824.00
2019-04-21T06:22:53.319Z,1812.00
2019-04-21T06:23:49.725Z,1800.00
2019-04-21T06:25:16.271Z,1812.00
2019-04-21T06:26:25.378Z,1824.00
2019-04-21T06:27:05.388Z,1844.00
2019-04-21T06:27:51.109Z,1852.00
2019-04-21T06:28:51.851Z,1848.00
2019-04-21T06:29:52.731Z,1852.00
2019-04-21T06:31:01.535Z,1876.00
2019-04-21T06:32:16.330Z,1908.00
2019-04-21T06:32:50.582Z,1936.00
2019-04-21T06:34:04.718Z,1944.00
2019-04-21T06:35:07.319Z,1980.00
2019-04-21T06:36:11.457Z,1996.00
2019-04-21T06:37:50.831Z,1976.00
2019-04-21T06:39:01.976Z,1980.00
2019-04-21T06:40:01.935Z,1980.00
2019-04-21T06:40:58.748Z,1976.00
2019-04-21T06:41:49.008Z,1988.00
2019-04-21T06:43:04.394Z,1992.00
2019-04-21T06:43:56.597Z,1992.00
2019-04-21T06:44:57.507Z,1996.00
2019-04-21T06:46:11.053Z,2024.00
2019-04-21T06:47:06.346Z,2032.00
2019-04-21T06:47:51.334Z,2024.00
2019-04-21T06:48:55.519Z,2028.00
2019-04-21T06:49:52.411Z,2004.00
2019-04-21T06:50:52.606Z,1992.00
2019-04-21T06:51:46.893Z,2024.00
2019-04-21T06:53:59.715Z,2156.00
2019-04-21T06:54:57.043Z,2184.00
2019-04-21T06:55:57.545Z,2200.00
2019-04-21T06:57:04.917Z,2204.00
2019-04-21T06:57:56.101Z,2200.00
2019-04-21T06:58:51.776Z,2164.00
2019-04-21T06:59:43.399Z,2112.00
2019-04-21T07:00:47.749Z,2108.00
2019-04-21T07:01:55.094Z,2156.00
2019-04-21T07:02:52.830Z,2208.00
2019-04-21T07:04:01.667Z,2288.00
2019-04-21T07:05:57.616Z,2292.00
2019-04-21T07:08:05.202Z,2316.00
2019-04-21T07:09:52.742Z,2364.00
2019-04-21T07:10:51.732Z,2332.00
2019-04-21T07:11:52.892Z,2348.00
2019-04-21T07:12:45.314Z,2360.00
2019-04-21T07:13:49.052Z,2356.00
2019-04-21T07:14:49.776Z,2340.00
2019-04-21T07:15:53.100Z,2360.00
2019-04-21T07:16:52.964Z,2388.00
2019-04-21T07:17:53.600Z,2376.00
2019-04-21T07:20:07.198Z,2408.00
2019-04-21T07:20:49.157Z,2424.00
2019-04-21T07:21:54.208Z,2448.00
2019-04-21T07:22:51.203Z,2484.00
2019-04-21T07:23:54.361Z,2500.00
2019-04-21T07:24:49.286Z,2536.00
2019-04-21T07:25:51.965Z,2504.00
2019-04-21T07:26:51.556Z,2464.00
2019-04-21T07:28:56.900Z,2472.00
2019-04-21T07:29:56.545Z,2444.00
2019-04-21T07:30:56.621Z,2512.00
2019-04-21T07:31:55.643Z,2552.00
2019-04-21T07:32:56.299Z,2500.00
2019-04-21T07:34:52.147Z,2568.00
2019-04-21T07:35:51.794Z,2624.00
2019-04-21T07:37:49.368Z,2676.00
2019-04-21T07:38:45.612Z,2720.00
2019-04-21T07:39:46.913Z,2800.00
2019-04-21T07:40:42.965Z,2940.00
2019-04-21T07:41:46.944Z,3024.00
2019-04-21T07:42:42.931Z,3000.00
2019-04-21T07:43:44.111Z,2984.00
2019-04-21T07:44:44.750Z,2948.00
2019-04-21T07:45:40.179Z,2960.00
2019-04-21T07:46:42.709Z,2920.00
2019-04-21T07:47:48.114Z,2904.00
2019-04-21T07:48:50.113Z,3136.00
2019-04-21T07:49:53.521Z,3192.00
2019-04-21T07:50:47.433Z,3052.00
2019-04-21T07:51:50.651Z,3140.00
2019-04-21T07:52:55.382Z,3420.00
2019-04-21T07:53:55.672Z,3460.00
2019-04-21T07:55:03.282Z,3260.00
2019-04-21T07:56:35.039Z,3268.00
2019-04-21T07:57:47.894Z,3312.00
2019-04-21T07:58:55.813Z,3224.00
2019-04-21T07:59:57.837Z,3152.00
2019-04-21T08:00:52.643Z,3136.00
2019-04-21T08:01:53.192Z,3180.00
2019-04-21T08:02:49.745Z,3228.00
2019-04-21T08:03:47.873Z,3332.00
2019-04-21T08:05:09.986Z,3284.00
2019-04-21T08:05:45.763Z,3188.00
2019-04-21T08:06:47.688Z,3200.00
2019-04-21T08:07:52.043Z,3256.00
2019-04-21T08:08:50.985Z,3496.00
2019-04-21T08:09:47.307Z,3948.00
2019-04-21T08:10:47.073Z,4160.00
2019-04-21T08:11:41.655Z,3964.00
2019-04-21T08:12:42.032Z,3992.00
2019-04-21T08:13:44.929Z,4072.00
2019-04-21T08:14:50.737Z,4020.00
2019-04-21T08:15:44.160Z,4012.00
2019-04-21T08:16:56.034Z,3936.00
2019-04-21T08:17:47.132Z,3816.00
2019-04-21T08:18:45.520Z,3972.00
2019-04-21T08:19:43.055Z,3920.00
2019-04-21T08:20:46.220Z,3784.00
2019-04-21T08:21:54.609Z,3672.00
2019-04-21T08:23:43.604Z,4076.00
2019-04-21T08:24:51.788Z,4168.00
2019-04-21T08:25:53.264Z,4064.00
2019-04-21T08:26:53.719Z,4104.00
2019-04-21T08:27:56.995Z,4300.00
2019-04-21T08:28:47.473Z,4740.00
2019-04-21T08:29:45.964Z,4992.00
2019-04-21T08:30:43.224Z,5172.00
2019-04-21T08:34:55.170Z,4976.00
2019-04-21T08:36:46.208Z,10804.00
2019-04-21T08:37:43.265Z,29888.00
2019-04-21T08:38:49.614Z,34944.00
2019-04-21T08:40:00.637Z,39040.00
2019-04-21T08:40:47.004Z,37792.00
2019-04-21T08:41:46.438Z,31680.00
2019-04-21T08:42:44.771Z,26048.00
2019-04-21T08:43:48.023Z,29344.00
2019-04-21T08:44:47.929Z,39584.00
2019-04-21T08:45:48.207Z,45632.00
2019-04-21T08:46:49.136Z,47040.00
2019-04-21T08:47:47.707Z,44960.00
2019-04-21T08:48:50.827Z,43328.00
2019-04-21T08:50:44.274Z,51712.00
2019-04-21T08:51:51.697Z,56448.00
2019-04-21T08:52:49.052Z,59232.00
2019-04-21T08:53:57.462Z,59776.00
2019-04-21T08:54:48.139Z,51808.00
2019-04-21T08:55:48.906Z,36480.00
2019-04-21T08:56:49.088Z,17888.00
2019-04-21T08:57:53.912Z,13856.00
2019-04-21T08:58:52.271Z,13208.00
2019-04-21T08:59:45.951Z,8424.00
2019-04-21T09:00:47.356Z,14656.00
2019-04-21T09:01:48.897Z,15488.00
2019-04-21T09:02:47.403Z,16832.00
2019-04-21T09:03:43.011Z,20608.00
2019-04-21T09:04:48.010Z,18560.00
2019-04-21T09:05:45.085Z,17856.00
2019-04-21T09:07:04.627Z,14528.00
2019-04-21T09:07:49.549Z,10236.00
2019-04-21T09:08:45.760Z,10088.00
2019-04-21T09:09:47.418Z,15072.00
2019-04-21T09:10:47.225Z,15552.00
2019-04-21T09:11:50.910Z,12212.00
2019-04-21T09:12:43.286Z,10388.00
2019-04-21T09:13:41.132Z,21568.00
2019-04-21T09:14:46.057Z,14528.00
2019-04-21T09:15:41.621Z,13144.00
2019-04-21T09:16:42.679Z,12828.00
2019-04-21T09:17:37.779Z,10044.00
2019-04-21T09:18:41.548Z,6392.00
2019-04-21T09:19:51.006Z,6656.00
2019-04-21T09:20:52.158Z,6804.00
2019-04-21T09:21:46.961Z,6160.00
2019-04-21T09:22:42.961Z,6612.00
2019-04-21T09:23:45.302Z,7008.00
2019-04-21T09:24:46.938Z,7548.00
2019-04-21T09:25:47.280Z,7760.00
2019-04-21T09:26:40.660Z,8000.00
2019-04-21T09:27:42.101Z,8396.00
2019-04-21T09:28:39.416Z,8704.00
2019-04-21T09:29:35.428Z,8992.00
2019-04-21T09:30:26.381Z,9308.00
2019-04-21T09:31:31.853Z,9812.00
2019-04-21T09:32:30.159Z,10680.00
2019-04-21T09:33:34.156Z,11828.00
2019-04-21T09:34:35.880Z,13504.00
2019-04-21T09:35:27.013Z,30592.00
2019-04-21T09:36:35.280Z,65632.00
2019-04-21T09:37:37.950Z,77152.00
2019-04-21T09:38:33.848Z,75552.00
2019-04-21T09:39:29.509Z,76928.00
2019-04-21T09:40:33.974Z,81888.00
2019-04-21T09:41:27.712Z,76864.00
2019-04-21T09:42:34.572Z,65248.00
2019-04-21T09:43:35.751Z,59392.00
2019-04-21T09:44:31.507Z,62560.00
2019-04-21T09:45:26.433Z,65344.00
2019-04-21T09:46:25.867Z,61824.00
2019-04-21T09:47:35.037Z,58304.00
2019-04-21T09:48:26.662Z,46304.00
2019-04-21T09:49:29.476Z,44832.00
2019-04-21T09:50:26.538Z,49056.00
2019-04-21T09:51:25.981Z,41888.00
2019-04-21T09:52:36.129Z,44960.00
2019-04-21T09:53:32.966Z,57184.00
2019-04-21T09:54:31.150Z,58432.00
2019-04-21T09:55:31.986Z,52352.00
2019-04-21T09:56:37.408Z,51552.00
2019-04-21T09:57:36.685Z,57056.00
2019-04-21T09:58:33.104Z,62048.00
2019-04-21T09:59:33.069Z,63904.00
2019-04-21T10:00:29.329Z,69056.00
2019-04-21T10:01:37.149Z,75584.00
2019-04-21T10:02:35.225Z,72672.00
2019-04-21T10:03:26.358Z,66688.00
2019-04-21T10:04:26.639Z,55520.00
2019-04-21T10:05:25.836Z,56064.00
2019-04-21T10:06:26.086Z,52512.00
2019-04-21T10:07:31.848Z,49120.00
2019-04-21T10:08:27.181Z,42496.00
2019-04-21T10:09:26.403Z,59520.00
2019-04-21T10:10:25.821Z,57664.00
2019-04-21T10:11:26.886Z,41728.00
2019-04-21T10:12:25.824Z,42720.00
2019-04-21T10:13:25.817Z,36032.00
2019-04-21T10:14:26.425Z,45440.00
2019-04-21T10:15:27.838Z,62944.00
2019-04-21T10:16:26.081Z,75552.00
2019-04-21T10:17:25.815Z,74496.00
2019-04-21T10:18:25.812Z,61632.00
2019-04-21T10:19:25.806Z,63360.00
2019-04-21T10:20:26.457Z,73920.00
2019-04-21T10:21:27.586Z,64928.00
2019-04-21T10:22:26.683Z,58400.00
2019-04-21T10:23:25.813Z,57728.00
2019-04-21T10:24:26.363Z,40480.00
2019-04-21T10:25:25.832Z,52864.00
2019-04-21T10:26:26.425Z,66720.00
2019-04-21T10:27:27.254Z,68672.00
2019-04-21T10:28:26.882Z,69312.00
2019-04-21T10:29:28.839Z,64352.00
2019-04-21T10:30:26.675Z,66112.00
2019-04-21T10:31:26.900Z,68320.00
2019-04-21T10:32:25.800Z,64096.00
2019-04-21T10:33:26.276Z,47360.00
2019-04-21T10:34:25.804Z,31584.00
2019-04-21T10:35:26.316Z,45248.00
2019-04-21T10:36:26.852Z,54944.00
2019-04-21T10:37:40.058Z,50336.00
2019-04-21T10:38:34.577Z,40352.00
2019-04-21T10:39:25.825Z,36352.00
2019-04-21T10:40:25.803Z,38176.00
2019-04-21T10:41:25.795Z,39072.00
2019-04-21T10:42:26.887Z,34240.00
2019-04-21T10:43:27.361Z,28928.00
2019-04-21T10:44:27.227Z,31008.00
2019-04-21T10:45:25.803Z,34496.00
2019-04-21T10:46:26.680Z,30592.00
2019-04-21T10:47:26.935Z,39168.00
2019-04-21T10:48:25.792Z,51872.00
2019-04-21T10:49:26.636Z,47808.00
2019-04-21T10:50:26.787Z,34528.00
2019-04-21T10:51:25.782Z,43328.00
2019-04-21T10:52:28.952Z,45568.00
2019-04-21T10:53:26.761Z,25984.00
2019-04-21T10:54:27.227Z,26848.00
2019-04-21T10:55:40.268Z,27328.00
2019-04-21T10:56:31.335Z,21888.00
2019-04-21T10:57:26.407Z,38112.00
2019-04-21T10:58:26.572Z,25280.00
2019-04-21T10:59:26.859Z,12188.00
2019-04-21T11:00:25.981Z,13896.00
2019-04-21T11:01:27.193Z,18272.00
2019-04-21T11:02:26.400Z,39232.00
2019-04-21T11:03:26.878Z,41280.00
2019-04-21T11:04:32.388Z,39008.00
2019-04-21T11:05:26.983Z,32608.00
2019-04-21T11:06:26.502Z,48224.00
2019-04-21T11:07:31.158Z,53728.00
2019-04-21T11:08:33.737Z,63264.00
2019-04-21T11:09:26.353Z,51648.00
2019-04-21T11:10:25.837Z,43904.00
2019-04-21T11:11:25.974Z,39840.00
2019-04-21T11:12:25.924Z,43264.00
2019-04-21T11:13:26.408Z,40864.00
2019-04-21T11:14:27.118Z,48640.00
2019-04-21T11:15:25.753Z,48992.00
2019-04-21T11:16:26.893Z,54848.00
2019-04-21T11:17:25.944Z,56064.00
2019-04-21T11:18:26.020Z,55488.00
2019-04-21T11:19:25.725Z,45216.00
2019-04-21T11:20:26.838Z,45536.00
2019-04-21T11:21:26.985Z,55520.00
2019-04-21T11:22:26.150Z,56736.00
2019-04-21T11:23:26.899Z,29728.00
2019-04-21T11:24:27.020Z,30848.00
2019-04-21T11:25:26.219Z,25792.00
2019-04-21T11:26:25.708Z,60064.00
2019-04-21T11:27:26.836Z,17408.00
2019-04-21T11:28:27.098Z,39232.00
2019-04-21T11:29:26.347Z,32768.00
2019-04-21T11:30:25.725Z,28992.00
2019-04-21T11:31:27.076Z,27200.00
2019-04-21T11:32:25.722Z,16544.00
2019-04-21T11:33:27.026Z,16384.00
2019-04-21T11:34:25.698Z,21088.00
2019-04-21T11:35:25.699Z,48672.00
2019-04-21T11:36:26.995Z,35776.00
2019-04-21T11:37:26.111Z,65856.00
2019-04-21T11:38:30.011Z,62240.00
2019-04-21T11:39:39.155Z,66400.00
2019-04-21T11:40:25.707Z,58080.00
2019-04-21T11:41:25.741Z,22656.00
2019-04-21T11:42:25.809Z,23552.00
2019-04-21T11:43:25.695Z,21312.00
2019-04-21T11:44:26.920Z,13276.00
2019-04-21T11:45:26.316Z,15136.00
2019-04-21T11:46:26.810Z,9612.00
2019-04-21T11:47:25.695Z,16000.00
2019-04-21T11:48:26.150Z,7984.00
2019-04-21T11:49:28.559Z,10100.00
2019-04-21T11:50:25.663Z,24352.00
2019-04-21T11:51:26.902Z,21920.00
2019-04-21T11:52:26.852Z,7496.00
2019-04-21T11:53:25.675Z,6936.00
2019-04-21T11:54:26.780Z,6908.00
2019-04-21T11:55:29.491Z,8080.00
2019-04-21T11:56:27.114Z,8496.00
2019-04-21T11:57:28.736Z,26656.00
2019-04-21T11:58:26.188Z,16352.00
2019-04-21T11:59:25.908Z,16640.00
2019-04-21T12:00:25.634Z,12028.00
2019-04-21T12:01:25.774Z,17632.00
2019-04-21T12:02:25.782Z,29632.00
2019-04-21T12:03:25.645Z,28224.00
2019-04-21T12:04:25.621Z,10140.00
2019-04-21T12:05:25.616Z,17440.00
2019-04-21T12:06:32.203Z,40832.00
2019-04-21T12:07:25.606Z,44128.00
2019-04-21T12:08:33.074Z,80960.00
2019-04-21T12:09:25.614Z,79552.00
2019-04-21T12:10:25.595Z,82784.00
2019-04-21T12:11:25.598Z,84000.00
2019-04-21T12:12:25.595Z,82144.00
2019-04-21T12:13:25.608Z,65536.00
2019-04-21T12:14:25.959Z,59136.00
2019-04-21T12:15:26.973Z,62944.00
2019-04-21T12:16:25.623Z,34080.00
2019-04-21T12:17:25.929Z,82752.00
2019-04-21T12:18:28.140Z,87936.00
2019-04-21T12:19:26.987Z,80288.00
2019-04-21T12:20:26.431Z,67040.00
2019-04-21T12:21:28.338Z,82240.00
2019-04-21T12:22:30.269Z,58752.00
2019-04-21T12:23:26.740Z,59104.00
2019-04-21T12:24:27.034Z,53888.00
2019-04-21T12:25:25.653Z,44256.00
2019-04-21T12:26:26.398Z,25344.00
2019-04-21T12:27:25.757Z,23136.00
2019-04-21T12:28:25.894Z,18336.00
2019-04-21T12:29:26.882Z,16512.00
2019-04-21T12:30:25.607Z,28768.00
2019-04-21T12:31:25.633Z,26656.00
2019-04-21T12:32:26.322Z,27168.00
2019-04-21T12:33:25.621Z,54400.00
2019-04-21T12:34:25.948Z,38784.00
2019-04-21T12:35:26.136Z,46272.00
2019-04-21T12:36:25.639Z,14912.00
2019-04-21T12:37:26.869Z,15232.00
2019-04-21T12:38:36.406Z,11964.00
2019-04-21T12:39:26.996Z,53824.00
2019-04-21T12:40:26.413Z,51712.00
2019-04-21T12:41:26.692Z,53472.00
2019-04-21T12:42:26.882Z,12208.00
2019-04-21T12:43:26.460Z,7652.00
2019-04-21T12:44:25.615Z,54624.00
2019-04-21T12:45:26.111Z,58720.00
2019-04-21T12:46:25.863Z,27680.00
2019-04-21T12:47:25.931Z,9344.00
2019-04-21T12:48:26.234Z,22592.00
2019-04-21T12:49:25.738Z,23776.00
2019-04-21T12:50:25.900Z,17152.00
2019-04-21T12:51:25.963Z,21952.00
2019-04-21T12:52:25.624Z,19360.00
2019-04-21T12:53:25.657Z,43552.00
2019-04-21T12:54:25.953Z,16768.00
2019-04-21T12:55:30.508Z,15712.00
2019-04-21T12:56:25.774Z,20544.00
2019-04-21T12:57:25.629Z,13420.00
2019-04-21T12:58:25.647Z,8608.00
2019-04-21T12:59:28.127Z,13660.00
2019-04-21T13:00:26.928Z,19328.00
2019-04-21T13:01:25.623Z,6252.00
2019-04-21T13:02:25.630Z,7516.00
2019-04-21T13:03:27.426Z,7340.00
2019-04-21T13:04:25.999Z,26080.00
2019-04-21T13:05:25.621Z,19680.00
2019-04-21T13:06:25.629Z,17888.00
2019-04-21T13:07:25.820Z,8392.00
2019-04-21T13:08:25.612Z,6568.00
2019-04-21T13:09:27.473Z,6520.00
2019-04-21T13:10:26.403Z,11240.00
2019-04-21T13:11:25.637Z,14816.00
2019-04-21T13:12:26.810Z,6896.00
2019-04-21T13:13:26.167Z,6992.00
2019-04-21T13:14:26.170Z,6600.00
2019-04-21T13:15:25.622Z,6332.00
2019-04-21T13:16:25.604Z,44000.00
2019-04-21T13:17:25.657Z,7236.00
2019-04-21T13:18:26.950Z,12056.00
2019-04-21T13:19:25.593Z,71488.00
2019-04-21T13:20:25.587Z,43232.00
2019-04-21T13:21:25.593Z,39520.00
2019-04-21T13:22:25.931Z,42112.00
2019-04-21T13:23:27.018Z,59328.00
2019-04-21T13:24:26.150Z,11328.00
2019-04-21T13:25:25.660Z,7324.00
2019-04-21T13:26:35.872Z,36544.00